Time;durP1;ratioP1;P1;durP2;ratioP2;P2;SDS_P1;SDS_P2;PMS_P1;PMS_P2;Temp;Humidity;BMP_temperature;BMP_pressure;BME280_temperature;BME280_humidity;BME280_pressure;Samples;Min_cycle;Max_cycle;Signal;HPM_P1;HPM_P2
2023/12/04 00:02:04;;;;;;;22.20;12.93;;;;;;;;;;2611902;54;22350;-76
2023/12/04 00:04:30;;;;;;;18.50;13.67;;;;;;;;;;2610163;54;20435;-76
2023/12/04 00:06:56;;;;;;;16.67;13.23;;;;;;;;;;2612612;47;20419;-76
2023/12/04 00:09:24;;;;;;;19.67;14.33;;;;;;;;;;2613166;39;20787;-75
2023/12/04 00:11:50;;;;;;;21.27;13.70;;;;;;;;;;2612091;39;20843;-76
2023/12/04 00:14:16;;;;;;;22.07;14.10;;;;;;;;;;2611800;54;20487;-75
2023/12/04 00:16:42;;;;;;;19.57;13.60;;;;;;;;;;2611756;54;20403;-76
2023/12/04 00:19:09;;;;;;;19.63;12.87;;;;;;;;;;2611100;54;20922;-76
2023/12/04 00:21:35;;;;;;;19.50;12.50;;;;;;;;;;2611943;54;20434;-76
2023/12/04 00:24:02;;;;;;;17.70;11.57;;;;;;;;;;2610717;54;20445;-76
2023/12/04 00:26:28;;;;;;;19.53;11.40;;;;;;;;;;2612007;54;20431;-75
2023/12/04 00:28:54;;;;;;;24.77;13.50;;;;;;;;;;2611839;54;20419;-76
2023/12/04 00:31:20;;;;;;;17.30;12.97;;;;;;;;;;2610616;54;20409;-76
2023/12/04 00:33:47;;;;;;;16.60;12.13;;;;;;;;;;2611833;47;20407;-75
2023/12/04 00:36:13;;;;;;;13.87;11.40;;;;;;;;;;2612595;47;20515;-76
2023/12/04 00:38:40;;;;;;;18.73;12.80;;;;;;;;;;2611561;54;20454;-78
2023/12/04 00:41:06;;;;;;;16.30;12.00;;;;;;;;;;2610995;54;20480;-78
2023/12/04 00:43:33;;;;;;;14.80;9.77;;;;;;;;;;2613342;47;20406;-77
2023/12/04 00:45:59;;;;;;;18.90;12.27;;;;;;;;;;2613252;54;20419;-75
2023/12/04 00:48:25;;;;;;;14.80;11.03;;;;;;;;;;2611933;54;20543;-75
2023/12/04 00:50:51;;;;;;;19.60;12.73;;;;;;;;;;2611034;54;20949;-78
2023/12/04 00:53:17;;;;;;;14.83;11.20;;;;;;;;;;2612159;39;20892;-75
2023/12/04 00:55:43;;;;;;;16.00;10.67;;;;;;;;;;2612209;54;20943;-76
2023/12/04 00:58:09;;;;;;;14.93;11.10;;;;;;;;;;2612071;54;20415;-76
2023/12/04 01:00:35;;;;;;;16.27;11.27;;;;;;;;;;2611192;39;20724;-77
2023/12/04 01:03:01;;;;;;;14.80;11.77;;;;;;;;;;2611921;54;20401;-75
2023/12/04 01:05:27;;;;;;;17.83;10.17;;;;;;;;;;2611701;39;20788;-75
2023/12/04 01:07:53;;;;;;;16.40;11.23;;;;;;;;;;2612537;54;20414;-75
2023/12/04 01:10:20;;;;;;;13.60;9.97;;;;;;;;;;2610746;54;21050;-75
2023/12/04 01:12:46;;;;;;;15.03;10.50;;;;;;;;;;2611271;54;20469;-76
2023/12/04 01:15:12;;;;;;;17.43;12.80;;;;;;;;;;2611892;47;20419;-76
2023/12/04 01:17:38;;;;;;;13.37;10.70;;;;;;;;;;2610966;54;20383;-76
2023/12/04 01:20:04;;;;;;;15.03;10.37;;;;;;;;;;2611130;39;20883;-76
2023/12/04 01:22:30;;;;;;;18.77;11.67;;;;;;;;;;2611786;54;20434;-75
2023/12/04 01:24:56;;;;;;;15.50;11.00;;;;;;;;;;2611374;54;20420;-75
2023/12/04 01:27:22;;;;;;;17.37;11.90;;;;;;;;;;2611388;39;20890;-75
2023/12/04 01:29:48;;;;;;;12.70;10.27;;;;;;;;;;2611695;54;20407;-74
2023/12/04 01:32:14;;;;;;;16.13;11.70;;;;;;;;;;2610485;54;20412;-75
2023/12/04 01:34:41;;;;;;;14.47;11.83;;;;;;;;;;2611138;54;21566;-78
2023/12/04 01:37:07;;;;;;;15.67;10.80;;;;;;;;;;2611431;54;20417;-76
2023/12/04 01:39:33;;;;;;;11.17;9.30;;;;;;;;;;2609900;54;21239;-77
2023/12/04 01:41:59;;;;;;;17.33;10.57;;;;;;;;;;2610665;54;20419;-77
2023/12/04 01:44:25;;;;;;;12.87;9.23;;;;;;;;;;2610691;47;20956;-77
2023/12/04 01:46:51;;;;;;;14.20;10.80;;;;;;;;;;2612341;39;20796;-76
2023/12/04 01:49:17;;;;;;;14.10;10.03;;;;;;;;;;2612674;54;20420;-75
2023/12/04 01:51:44;;;;;;;13.33;10.23;;;;;;;;;;2611904;39;20827;-75
2023/12/04 01:54:10;;;;;;;14.27;9.53;;;;;;;;;;2611628;54;20427;-76
2023/12/04 01:56:37;;;;;;;13.60;9.20;;;;;;;;;;2611641;54;20470;-74
2023/12/04 01:59:04;;;;;;;12.53;10.17;;;;;;;;;;2612160;54;20497;-75
2023/12/04 02:01:30;;;;;;;13.47;9.80;;;;;;;;;;2610833;47;20416;-77
2023/12/04 02:03:57;;;;;;;13.90;9.50;;;;;;;;;;2611840;54;20394;-76
2023/12/04 02:06:25;;;;;;;14.23;10.77;;;;;;;;;;2611771;47;20431;-76
2023/12/04 02:08:51;;;;;;;12.43;9.80;;;;;;;;;;2611938;54;20436;-77
2023/12/04 02:11:17;;;;;;;13.50;8.50;;;;;;;;;;2610811;54;20416;-77
2023/12/04 02:13:43;;;;;;;14.20;9.53;;;;;;;;;;2610683;54;20399;-77
2023/12/04 02:16:10;;;;;;;11.93;7.43;;;;;;;;;;2611888;54;20979;-76
2023/12/04 02:18:37;;;;;;;12.37;9.40;;;;;;;;;;2611750;54;20515;-77
2023/12/04 02:21:03;;;;;;;21.30;10.30;;;;;;;;;;2610612;54;21495;-75
2023/12/04 02:23:29;;;;;;;11.37;8.60;;;;;;;;;;2610829;39;20817;-75
2023/12/04 02:25:59;;;;;;;12.07;9.63;;;;;;;;;;2611226;54;20431;-76
2023/12/04 02:28:26;;;;;;;16.60;9.80;;;;;;;;;;2611793;54;20420;-76
2023/12/04 02:30:53;;;;;;;11.10;8.70;;;;;;;;;;2611605;54;20398;-76
2023/12/04 02:33:20;;;;;;;13.43;10.43;;;;;;;;;;2610777;47;20442;-77
2023/12/04 02:35:46;;;;;;;12.07;8.80;;;;;;;;;;2610601;47;20410;-76
2023/12/04 02:38:13;;;;;;;9.87;7.93;;;;;;;;;;2611281;39;20760;-75
2023/12/04 02:40:39;;;;;;;10.10;8.73;;;;;;;;;;2611049;47;20466;-76
2023/12/04 02:43:05;;;;;;;13.50;9.17;;;;;;;;;;2611635;39;20705;-76
2023/12/04 02:45:31;;;;;;;11.60;9.10;;;;;;;;;;2610123;54;20399;-76
2023/12/04 02:47:57;;;;;;;14.30;9.70;;;;;;;;;;2612005;54;20426;-75
2023/12/04 02:50:23;;;;;;;9.77;7.70;;;;;;;;;;2611090;54;20476;-75
2023/12/04 02:52:49;;;;;;;12.70;7.67;;;;;;;;;;2610658;54;20423;-76
2023/12/04 02:55:15;;;;;;;11.57;8.80;;;;;;;;;;2613385;54;21257;-78
2023/12/04 02:57:41;;;;;;;11.47;9.00;;;;;;;;;;2612323;54;20431;-77
2023/12/04 03:00:08;;;;;;;11.63;8.50;;;;;;;;;;2612017;54;20407;-76
2023/12/04 03:02:34;;;;;;;7.60;6.30;;;;;;;;;;2612209;39;20867;-79
2023/12/04 03:04:59;;;;;;;12.53;9.20;;;;;;;;;;2610378;39;20684;-73
2023/12/04 03:07:26;;;;;;;12.77;8.30;;;;;;;;;;2611244;54;20435;-73
2023/12/04 03:09:52;;;;;;;11.03;8.33;;;;;;;;;;2610565;51;20522;-72
2023/12/04 03:12:18;;;;;;;12.70;8.70;;;;;;;;;;2610543;54;20550;-73
2023/12/04 03:14:44;;;;;;;11.23;9.33;;;;;;;;;;2611004;54;20430;-73
2023/12/04 03:17:10;;;;;;;9.60;8.57;;;;;;;;;;2610706;54;20415;-74
2023/12/04 03:19:36;;;;;;;11.70;9.47;;;;;;;;;;2611280;54;20998;-74
2023/12/04 03:22:02;;;;;;;10.90;7.83;;;;;;;;;;2611113;54;20415;-73
2023/12/04 03:24:28;;;;;;;8.53;7.50;;;;;;;;;;2610272;54;20457;-72
2023/12/04 03:26:55;;;;;;;7.23;6.13;;;;;;;;;;2611733;39;20760;-74
2023/12/04 03:29:21;;;;;;;11.33;8.87;;;;;;;;;;2612002;39;20883;-72
2023/12/04 03:31:47;;;;;;;10.67;8.40;;;;;;;;;;2611539;54;20435;-72
2023/12/04 03:34:13;;;;;;;9.33;7.67;;;;;;;;;;2611790;54;20445;-73
2023/12/04 03:36:39;;;;;;;9.33;7.77;;;;;;;;;;2611188;54;20395;-73
2023/12/04 03:39:05;;;;;;;10.23;8.40;;;;;;;;;;2611886;54;20386;-73
2023/12/04 03:41:31;;;;;;;7.67;6.47;;;;;;;;;;2611483;54;20454;-72
2023/12/04 03:43:57;;;;;;;8.47;6.50;;;;;;;;;;2611373;54;20511;-73
2023/12/04 03:46:23;;;;;;;9.10;7.73;;;;;;;;;;2612050;47;20406;-74
2023/12/04 03:48:49;;;;;;;9.97;7.40;;;;;;;;;;2611677;54;20430;-73
2023/12/04 03:51:15;;;;;;;9.37;7.27;;;;;;;;;;2610102;54;20446;-73
2023/12/04 03:53:41;;;;;;;8.47;7.03;;;;;;;;;;2611098;54;20403;-73
2023/12/04 03:56:08;;;;;;;8.07;6.40;;;;;;;;;;2611912;54;20431;-72
2023/12/04 03:58:35;;;;;;;11.47;6.97;;;;;;;;;;2612105;39;20855;-73
2023/12/04 04:01:01;;;;;;;9.07;7.40;;;;;;;;;;2611669;47;20430;-73
2023/12/04 04:03:27;;;;;;;7.93;7.13;;;;;;;;;;2611515;54;20466;-73
2023/12/04 04:05:53;;;;;;;8.27;6.97;;;;;;;;;;2612089;54;20406;-75
2023/12/04 04:08:19;;;;;;;7.90;6.47;;;;;;;;;;2612566;54;20959;-76
2023/12/04 04:10:45;;;;;;;10.63;7.10;;;;;;;;;;2611634;54;21050;-76
2023/12/04 04:13:11;;;;;;;9.37;7.77;;;;;;;;;;2612506;39;20808;-76
2023/12/04 04:15:37;;;;;;;9.03;6.03;;;;;;;;;;2612279;39;21149;-72
2023/12/04 04:18:03;;;;;;;7.00;5.97;;;;;;;;;;2611534;54;20414;-76
2023/12/04 04:20:29;;;;;;;5.87;5.20;;;;;;;;;;2611684;54;20430;-74
2023/12/04 04:22:55;;;;;;;6.37;5.40;;;;;;;;;;2610669;54;20450;-75
2023/12/04 04:25:23;;;;;;;6.80;6.10;;;;;;;;;;2612548;54;20443;-76
2023/12/04 04:27:49;;;;;;;9.10;8.17;;;;;;;;;;2609561;54;20406;-78
2023/12/04 04:30:16;;;;;;;8.47;6.67;;;;;;;;;;2611470;54;20442;-76
2023/12/04 04:32:42;;;;;;;8.60;6.03;;;;;;;;;;2611773;39;20807;-76
2023/12/04 04:35:08;;;;;;;6.43;5.90;;;;;;;;;;2611225;39;20863;-75
2023/12/04 04:37:35;;;;;;;7.17;6.27;;;;;;;;;;2610482;54;20454;-76
2023/12/04 04:40:01;;;;;;;8.13;7.37;;;;;;;;;;2611952;54;20490;-75
2023/12/04 04:42:27;;;;;;;5.13;4.67;;;;;;;;;;2611265;47;20431;-74
2023/12/04 04:44:53;;;;;;;9.83;7.33;;;;;;;;;;2611301;47;20529;-75
2023/12/04 04:47:19;;;;;;;8.70;7.30;;;;;;;;;;2611158;54;20419;-75
2023/12/04 04:49:45;;;;;;;7.10;6.37;;;;;;;;;;2610757;47;20556;-77
2023/12/04 04:52:11;;;;;;;7.37;6.67;;;;;;;;;;2611484;54;20407;-75
2023/12/04 04:54:37;;;;;;;7.97;6.80;;;;;;;;;;2612461;31;20837;-76
2023/12/04 04:57:03;;;;;;;7.40;6.70;;;;;;;;;;2611374;54;20432;-77
2023/12/04 04:59:30;;;;;;;9.37;6.67;;;;;;;;;;2612189;54;20443;-76
2023/12/04 05:01:56;;;;;;;7.77;6.30;;;;;;;;;;2609509;54;20451;-76
2023/12/04 05:04:22;;;;;;;9.87;7.90;;;;;;;;;;2612151;54;20434;-73
2023/12/04 05:06:48;;;;;;;7.50;6.73;;;;;;;;;;2610766;54;20442;-75
2023/12/04 05:09:14;;;;;;;7.27;6.57;;;;;;;;;;2611619;47;20431;-75
2023/12/04 05:11:41;;;;;;;8.30;7.50;;;;;;;;;;2611246;54;20423;-76
2023/12/04 05:14:07;;;;;;;8.40;7.03;;;;;;;;;;2612155;54;20439;-76
2023/12/04 05:16:33;;;;;;;8.63;7.40;;;;;;;;;;2613635;54;20427;-79
2023/12/04 05:18:59;;;;;;;7.90;7.10;;;;;;;;;;2613346;54;20519;-79
2023/12/04 05:21:25;;;;;;;7.73;6.20;;;;;;;;;;2612369;47;20431;-80
2023/12/04 05:23:51;;;;;;;11.40;8.30;;;;;;;;;;2612475;54;20410;-80
2023/12/04 05:26:17;;;;;;;10.40;7.73;;;;;;;;;;2611743;54;20426;-72
2023/12/04 05:28:43;;;;;;;7.60;6.40;;;;;;;;;;2610984;54;20446;-74
2023/12/04 05:31:09;;;;;;;10.80;8.40;;;;;;;;;;2611268;54;20413;-73
2023/12/04 05:33:35;;;;;;;7.87;7.10;;;;;;;;;;2609926;54;20389;-74
2023/12/04 05:36:01;;;;;;;9.53;7.23;;;;;;;;;;2611710;54;20418;-74
2023/12/04 05:38:27;;;;;;;8.20;7.40;;;;;;;;;;2611801;54;20411;-74
2023/12/04 05:40:54;;;;;;;7.37;6.40;;;;;;;;;;2610788;39;20830;-73
2023/12/04 05:43:20;;;;;;;7.93;7.07;;;;;;;;;;2610496;54;20420;-73
2023/12/04 05:45:46;;;;;;;8.90;7.60;;;;;;;;;;2611562;54;20514;-73
2023/12/04 05:48:12;;;;;;;11.00;7.97;;;;;;;;;;2611327;54;20447;-75
2023/12/04 05:50:38;;;;;;;8.00;7.40;;;;;;;;;;2610783;54;20406;-74
2023/12/04 05:53:04;;;;;;;9.47;7.73;;;;;;;;;;2611636;54;20403;-73
2023/12/04 05:55:30;;;;;;;11.90;8.40;;;;;;;;;;2611095;54;20414;-74
2023/12/04 05:57:56;;;;;;;7.27;6.50;;;;;;;;;;2611996;54;20992;-73
2023/12/04 06:00:22;;;;;;;9.83;8.20;;;;;;;;;;2610744;54;20383;-73
2023/12/04 06:02:48;;;;;;;10.00;7.87;;;;;;;;;;2611496;54;20999;-74
2023/12/04 06:05:14;;;;;;;10.13;8.43;;;;;;;;;;2611458;54;20410;-74
2023/12/04 06:07:41;;;;;;;16.40;6.60;;;;;;;;;;2611909;54;20402;-74
2023/12/04 06:10:08;;;;;;;8.77;7.93;;;;;;;;;;2611802;54;20418;-74
2023/12/04 06:12:34;;;;;;;9.20;7.40;;;;;;;;;;2611491;54;20438;-73
2023/12/04 06:15:00;;;;;;;14.10;9.10;;;;;;;;;;2610177;54;21162;-74
2023/12/04 06:17:27;;;;;;;10.97;9.83;;;;;;;;;;2612555;54;20402;-74
2023/12/04 06:19:53;;;;;;;12.53;8.40;;;;;;;;;;2611771;47;20406;-73
2023/12/04 06:22:21;;;;;;;12.60;8.97;;;;;;;;;;2610353;54;20391;-73
2023/12/04 06:24:47;;;;;;;10.17;8.47;;;;;;;;;;2610217;47;20431;-73
2023/12/04 06:27:18;;;;;;;7.77;7.07;;;;;;;;;;2610833;54;20402;-74
2023/12/04 06:29:45;;;;;;;9.27;8.27;;;;;;;;;;2609656;54;21050;-74
2023/12/04 06:32:11;;;;;;;11.17;9.53;;;;;;;;;;2611049;54;20415;-75
2023/12/04 06:34:38;;;;;;;10.00;7.40;;;;;;;;;;2611108;39;20895;-77
2023/12/04 06:37:04;;;;;;;10.13;8.30;;;;;;;;;;2609740;54;20427;-76
2023/12/04 06:39:33;;;;;;;11.67;8.37;;;;;;;;;;2611027;54;20525;-78
2023/12/04 06:42:00;;;;;;;8.53;7.13;;;;;;;;;;2609834;39;21137;-75
2023/12/04 06:44:26;;;;;;;9.53;8.60;;;;;;;;;;2610934;54;20951;-76
2023/12/04 06:46:52;;;;;;;9.97;7.17;;;;;;;;;;2611891;47;20534;-76
2023/12/04 06:49:19;;;;;;;9.03;7.30;;;;;;;;;;2610914;54;20414;-75
2023/12/04 06:51:45;;;;;;;11.97;9.23;;;;;;;;;;2611309;39;20979;-75
2023/12/04 06:54:13;;;;;;;7.57;6.87;;;;;;;;;;2611494;54;20453;-75
2023/12/04 06:56:39;;;;;;;9.33;7.70;;;;;;;;;;2611311;54;20418;-76
2023/12/04 06:59:05;;;;;;;9.40;8.40;;;;;;;;;;2611028;54;20403;-76
2023/12/04 07:01:31;;;;;;;8.67;7.40;;;;;;;;;;2610644;47;20423;-76
2023/12/04 07:03:57;;;;;;;8.57;7.73;;;;;;;;;;2611296;54;20423;-75
2023/12/04 07:06:24;;;;;;;11.10;7.27;;;;;;;;;;2610852;54;20430;-77
2023/12/04 07:08:50;;;;;;;11.10;7.70;;;;;;;;;;2610377;54;20417;-75
2023/12/04 07:11:16;;;;;;;16.33;8.30;;;;;;;;;;2610149;54;20474;-75
2023/12/04 07:13:42;;;;;;;12.10;8.90;;;;;;;;;;2610333;47;20437;-77
2023/12/04 07:16:08;;;;;;;10.83;7.73;;;;;;;;;;2609637;54;20378;-74
2023/12/04 07:18:34;;;;;;;8.73;7.70;;;;;;;;;;2610963;54;20514;-75
2023/12/04 07:21:01;;;;;;;9.13;8.10;;;;;;;;;;2611674;54;20417;-76
2023/12/04 07:23:27;;;;;;;12.47;8.53;;;;;;;;;;2611617;54;20471;-74
2023/12/04 07:25:53;;;;;;;8.83;8.00;;;;;;;;;;2611957;39;21037;-75
2023/12/04 07:28:19;;;;;;;10.47;8.30;;;;;;;;;;2612077;54;20511;-74
2023/12/04 07:30:46;;;;;;;8.40;7.50;;;;;;;;;;2610787;54;20489;-75
2023/12/04 07:33:12;;;;;;;10.63;8.27;;;;;;;;;;2609765;47;20409;-74
2023/12/04 07:35:38;;;;;;;10.90;9.17;;;;;;;;;;2610087;54;20442;-73
2023/12/04 07:38:04;;;;;;;10.10;7.97;;;;;;;;;;2611223;54;20975;-73
2023/12/04 07:40:30;;;;;;;8.40;7.50;;;;;;;;;;2610335;54;20454;-73
2023/12/04 07:42:56;;;;;;;11.90;8.50;;;;;;;;;;2612321;54;21187;-72
2023/12/04 07:45:23;;;;;;;9.27;7.27;;;;;;;;;;2613398;47;21044;-82
2023/12/04 07:47:50;;;;;;;11.60;9.00;;;;;;;;;;2613543;54;20403;-83
2023/12/04 07:50:16;;;;;;;10.13;9.13;;;;;;;;;;2613153;51;20446;-83
2023/12/04 07:52:43;;;;;;;9.30;8.00;;;;;;;;;;2612067;54;20637;-83
2023/12/04 07:55:09;;;;;;;9.00;7.50;;;;;;;;;;2611879;54;20438;-82
2023/12/04 07:57:35;;;;;;;9.53;8.23;;;;;;;;;;2609526;39;20809;-83
2023/12/04 08:00:01;;;;;;;9.23;8.37;;;;;;;;;;2609764;54;20431;-82
2023/12/04 08:02:28;;;;;;;9.80;7.53;;;;;;;;;;2611814;54;20427;-84
2023/12/04 08:04:54;;;;;;;9.97;8.00;;;;;;;;;;2611687;47;20506;-81
2023/12/04 08:07:20;;;;;;;14.47;8.93;;;;;;;;;;2611476;54;20410;-82
2023/12/04 08:09:46;;;;;;;8.53;7.43;;;;;;;;;;2612343;54;20399;-81
2023/12/04 08:12:12;;;;;;;8.10;5.27;;;;;;;;;;2611291;47;20830;-81
2023/12/04 08:14:38;;;;;;;7.63;7.03;;;;;;;;;;2614472;39;20749;-82
2023/12/04 08:17:05;;;;;;;6.93;6.23;;;;;;;;;;2611802;39;20911;-82
2023/12/04 08:19:31;;;;;;;9.33;8.00;;;;;;;;;;2611407;54;20429;-86
2023/12/04 08:21:57;;;;;;;9.83;8.40;;;;;;;;;;2612276;47;21126;-84
2023/12/04 08:24:23;;;;;;;8.77;7.40;;;;;;;;;;2612565;39;20910;-84
2023/12/04 08:26:50;;;;;;;7.90;7.20;;;;;;;;;;2611893;47;20439;-83
2023/12/04 08:29:17;;;;;;;9.10;8.17;;;;;;;;;;2610208;54;20416;-83
2023/12/04 08:31:43;;;;;;;9.53;7.33;;;;;;;;;;2611918;47;20914;-82
2023/12/04 08:34:09;;;;;;;8.17;7.03;;;;;;;;;;2611536;54;20422;-80
2023/12/04 08:36:36;;;;;;;9.17;8.03;;;;;;;;;;2611796;39;20858;-82
2023/12/04 08:39:04;;;;;;;8.30;7.53;;;;;;;;;;2612062;47;20439;-81
2023/12/04 08:41:30;;;;;;;7.50;6.80;;;;;;;;;;2612558;54;20490;-82
2023/12/04 08:43:56;;;;;;;10.27;7.90;;;;;;;;;;2611592;54;20478;-83
2023/12/04 08:46:22;;;;;;;8.07;7.27;;;;;;;;;;2608743;47;20406;-76
2023/12/04 08:48:48;;;;;;;9.37;8.13;;;;;;;;;;2611569;39;20831;-73
2023/12/04 08:51:17;;;;;;;6.77;6.17;;;;;;;;;;2609639;54;20518;-74
2023/12/04 08:53:43;;;;;;;8.13;7.30;;;;;;;;;;2611427;54;20412;-73
2023/12/04 08:56:10;;;;;;;5.93;5.33;;;;;;;;;;2610614;54;20419;-73
2023/12/04 08:58:36;;;;;;;11.03;8.20;;;;;;;;;;2610125;54;20419;-74
2023/12/04 09:01:03;;;;;;;9.00;6.70;;;;;;;;;;2610218;54;20415;-73
2023/12/04 09:03:31;;;;;;;8.60;7.73;;;;;;;;;;2610225;54;20470;-74
2023/12/04 09:05:57;;;;;;;10.90;6.30;;;;;;;;;;2610866;54;20419;-74
2023/12/04 09:08:27;;;;;;;11.17;7.27;;;;;;;;;;2611859;39;20821;-74
2023/12/04 09:10:53;;;;;;;7.53;6.77;;;;;;;;;;2610892;39;20845;-74
2023/12/04 09:13:19;;;;;;;7.50;6.60;;;;;;;;;;2609664;54;20553;-75
2023/12/04 09:15:45;;;;;;;7.47;6.17;;;;;;;;;;2609972;54;20472;-73
2023/12/04 09:18:11;;;;;;;8.87;7.00;;;;;;;;;;2608433;54;20529;-76
2023/12/04 09:20:37;;;;;;;6.50;5.40;;;;;;;;;;2611039;54;20418;-75
2023/12/04 09:23:03;;;;;;;8.33;6.57;;;;;;;;;;2610412;54;20423;-75
2023/12/04 09:25:29;;;;;;;6.40;5.80;;;;;;;;;;2610680;39;21087;-74
2023/12/04 09:27:55;;;;;;;5.40;4.93;;;;;;;;;;2610860;47;20419;-74
2023/12/04 09:30:21;;;;;;;6.00;5.10;;;;;;;;;;2609633;54;20472;-73
2023/12/04 09:32:47;;;;;;;6.10;5.07;;;;;;;;;;2610780;54;20407;-73
2023/12/04 09:35:13;;;;;;;7.03;5.70;;;;;;;;;;2610961;39;20506;-73
2023/12/04 09:37:39;;;;;;;6.83;6.13;;;;;;;;;;2610252;46;20483;-74
2023/12/04 09:40:05;;;;;;;5.17;4.73;;;;;;;;;;2611201;54;20435;-74
2023/12/04 09:42:32;;;;;;;40.67;6.37;;;;;;;;;;2611189;54;21141;-73
2023/12/04 09:44:59;;;;;;;6.10;5.50;;;;;;;;;;2610524;54;20403;-75
2023/12/04 09:47:26;;;;;;;5.80;5.13;;;;;;;;;;2610926;47;20454;-74
2023/12/04 09:49:53;;;;;;;5.93;5.13;;;;;;;;;;2610430;47;20414;-74
2023/12/04 09:52:20;;;;;;;6.77;6.17;;;;;;;;;;2610305;54;20489;-75
2023/12/04 09:54:46;;;;;;;6.43;5.87;;;;;;;;;;2611279;54;20424;-80
2023/12/04 09:57:15;;;;;;;6.60;5.70;;;;;;;;;;2609751;54;20417;-76
2023/12/04 09:59:42;;;;;;;6.40;5.80;;;;;;;;;;2609924;54;20412;-80
2023/12/04 10:02:08;;;;;;;6.73;5.23;;;;;;;;;;2611177;54;20420;-78
2023/12/04 10:04:35;;;;;;;6.37;5.10;;;;;;;;;;2611088;47;20440;-75
2023/12/04 10:07:02;;;;;;;6.07;5.47;;;;;;;;;;2611121;47;20431;-74
2023/12/04 10:09:28;;;;;;;5.97;5.30;;;;;;;;;;2610453;46;20420;-73
2023/12/04 10:11:57;;;;;;;7.00;5.87;;;;;;;;;;2608855;54;20396;-74
2023/12/04 10:14:23;;;;;;;8.30;5.23;;;;;;;;;;2610678;54;20454;-76
2023/12/04 10:16:49;;;;;;;6.40;4.73;;;;;;;;;;2610292;47;20493;-75
2023/12/04 10:19:26;;;;;;;5.23;4.73;;;;;;;;;;2610960;54;20432;-73
2023/12/04 10:21:52;;;;;;;14.10;5.40;;;;;;;;;;2609193;47;20443;-75
2023/12/04 10:24:35;;;;;;;5.67;4.73;;;;;;;;;;2610349;54;20410;-74
2023/12/04 10:27:11;;;;;;;7.57;5.30;;;;;;;;;;2609606;54;20543;-74
2023/12/04 10:29:48;;;;;;;6.87;6.03;;;;;;;;;;2609399;54;20426;-74
2023/12/04 10:32:14;;;;;;;6.37;5.30;;;;;;;;;;2610191;54;20423;-75
2023/12/04 10:34:43;;;;;;;5.37;4.90;;;;;;;;;;2611279;39;20798;-74
2023/12/04 10:37:10;;;;;;;7.80;5.60;;;;;;;;;;2610987;54;20432;-73
2023/12/04 10:39:47;;;;;;;10.73;6.57;;;;;;;;;;2609360;39;20902;-74
2023/12/04 10:42:13;;;;;;;7.10;6.40;;;;;;;;;;2610057;54;20395;-74
2023/12/04 10:44:41;;;;;;;5.93;5.10;;;;;;;;;;2609763;39;20825;-74
2023/12/04 10:47:07;;;;;;;6.47;5.67;;;;;;;;;;2610958;54;20961;-74
2023/12/04 10:49:36;;;;;;;8.30;6.20;;;;;;;;;;2610918;39;20825;-75
2023/12/04 10:52:02;;;;;;;6.80;6.10;;;;;;;;;;2610520;54;20432;-73
2023/12/04 10:54:28;;;;;;;16.30;6.37;;;;;;;;;;2610801;39;20788;-75
2023/12/04 10:56:59;;;;;;;7.57;5.97;;;;;;;;;;2610439;54;20450;-74
2023/12/04 10:59:27;;;;;;;13.90;7.17;;;;;;;;;;2609983;54;20492;-74
2023/12/04 11:01:55;;;;;;;8.10;6.27;;;;;;;;;;2610690;54;20975;-75
2023/12/04 11:04:24;;;;;;;10.20;5.40;;;;;;;;;;2609275;54;20406;-81
2023/12/04 11:06:53;;;;;;;6.03;4.50;;;;;;;;;;2613012;39;20948;-82
2023/12/04 11:09:21;;;;;;;9.40;6.37;;;;;;;;;;2613076;54;20865;-81
2023/12/04 11:11:49;;;;;;;8.80;7.00;;;;;;;;;;2612430;47;20460;-80
2023/12/04 11:14:18;;;;;;;13.00;8.17;;;;;;;;;;2611356;54;20415;-75
2023/12/04 11:16:48;;;;;;;8.10;6.30;;;;;;;;;;2611423;54;20388;-75
2023/12/04 11:19:20;;;;;;;7.70;5.97;;;;;;;;;;2610118;54;20486;-77
2023/12/04 11:21:46;;;;;;;8.67;6.50;;;;;;;;;;2609968;54;20408;-77
2023/12/04 11:24:14;;;;;;;7.93;5.37;;;;;;;;;;2611043;47;20435;-78
2023/12/04 11:26:43;;;;;;;9.80;6.97;;;;;;;;;;2610370;47;20403;-78
2023/12/04 11:29:10;;;;;;;9.43;6.40;;;;;;;;;;2610477;47;20534;-77
2023/12/04 11:31:36;;;;;;;8.27;6.87;;;;;;;;;;2610746;39;21025;-76
2023/12/04 11:34:03;;;;;;;8.90;7.03;;;;;;;;;;2611228;47;20518;-76
2023/12/04 11:36:29;;;;;;;11.10;6.57;;;;;;;;;;2610276;54;20550;-77
2023/12/04 11:38:56;;;;;;;11.87;7.13;;;;;;;;;;2610935;54;20471;-78
2023/12/04 11:41:23;;;;;;;13.37;7.27;;;;;;;;;;2610507;47;20473;-77
2023/12/04 11:43:51;;;;;;;8.10;7.27;;;;;;;;;;2610126;54;20403;-78
2023/12/04 11:46:22;;;;;;;8.00;5.90;;;;;;;;;;2610901;54;20424;-77
2023/12/04 11:48:49;;;;;;;9.70;6.40;;;;;;;;;;2611738;39;20712;-76
2023/12/04 11:51:34;;;;;;;6.20;4.43;;;;;;;;;;2610435;54;20411;-76
2023/12/04 11:54:00;;;;;;;9.17;6.83;;;;;;;;;;2611158;54;20550;-76
2023/12/04 11:56:26;;;;;;;11.67;7.10;;;;;;;;;;2610967;39;20963;-77
2023/12/04 11:58:52;;;;;;;11.50;8.40;;;;;;;;;;2610431;54;20398;-76
2023/12/04 12:01:18;;;;;;;13.90;7.17;;;;;;;;;;2610256;54;21030;-76
2023/12/04 12:03:44;;;;;;;9.50;6.77;;;;;;;;;;2611338;54;20460;-75
2023/12/04 12:06:12;;;;;;;9.40;7.27;;;;;;;;;;2611126;54;20436;-76
2023/12/04 12:08:39;;;;;;;10.07;7.30;;;;;;;;;;2609125;54;20431;-76
2023/12/04 12:11:05;;;;;;;10.30;7.73;;;;;;;;;;2610667;54;20439;-76
2023/12/04 12:13:31;;;;;;;11.43;6.90;;;;;;;;;;2611535;54;20515;-75
2023/12/04 12:15:58;;;;;;;7.70;6.83;;;;;;;;;;2611739;47;20522;-82
2023/12/04 12:18:24;;;;;;;17.13;8.10;;;;;;;;;;2611911;54;20560;-80
2023/12/04 12:20:50;;;;;;;11.83;7.97;;;;;;;;;;2612315;54;20454;-82
2023/12/04 12:23:16;;;;;;;9.63;7.57;;;;;;;;;;2612240;46;20920;-82
2023/12/04 12:25:42;;;;;;;9.43;6.87;;;;;;;;;;2610479;47;20948;-75
2023/12/04 12:28:08;;;;;;;12.57;8.57;;;;;;;;;;2609359;47;20457;-75
2023/12/04 12:30:34;;;;;;;22.33;7.57;;;;;;;;;;2609775;47;20727;-76
2023/12/04 12:33:01;;;;;;;12.30;8.63;;;;;;;;;;2608530;54;20431;-75
2023/12/04 12:35:27;;;;;;;10.97;7.57;;;;;;;;;;2610958;46;20523;-79
2023/12/04 12:37:53;;;;;;;9.43;7.60;;;;;;;;;;2610933;54;20447;-78
2023/12/04 12:40:20;;;;;;;7.97;4.80;;;;;;;;;;2610190;54;20554;-76
2023/12/04 12:42:47;;;;;;;10.90;7.47;;;;;;;;;;2611451;46;20557;-77
2023/12/04 12:45:13;;;;;;;11.80;7.40;;;;;;;;;;2611024;39;20895;-77
2023/12/04 12:47:43;;;;;;;11.43;7.20;;;;;;;;;;2610727;54;20424;-76
2023/12/04 12:50:13;;;;;;;12.53;7.27;;;;;;;;;;2611572;54;20408;-76
2023/12/04 12:52:40;;;;;;;13.70;8.20;;;;;;;;;;2610736;54;20424;-77
2023/12/04 12:55:06;;;;;;;9.10;8.20;;;;;;;;;;2610660;54;20483;-76
2023/12/04 12:57:32;;;;;;;10.40;8.20;;;;;;;;;;2610590;54;20439;-76
2023/12/04 12:59:58;;;;;;;11.40;7.30;;;;;;;;;;2611839;54;20399;-77
2023/12/04 13:02:24;;;;;;;13.40;8.43;;;;;;;;;;2611147;47;20420;-78
2023/12/04 13:04:51;;;;;;;12.80;8.20;;;;;;;;;;2611680;54;20967;-78
2023/12/04 13:07:18;;;;;;;7.20;6.23;;;;;;;;;;2611656;54;20412;-77
2023/12/04 13:09:44;;;;;;;8.57;5.87;;;;;;;;;;2611513;46;20398;-76
2023/12/04 13:12:10;;;;;;;12.63;8.73;;;;;;;;;;2610555;54;20439;-77
2023/12/04 13:14:37;;;;;;;9.67;7.30;;;;;;;;;;2611484;54;20428;-76
2023/12/04 13:17:03;;;;;;;17.17;8.77;;;;;;;;;;2612236;54;20494;-77
2023/12/04 13:19:31;;;;;;;9.07;7.23;;;;;;;;;;2611962;54;20450;-78
2023/12/04 13:21:57;;;;;;;8.80;5.90;;;;;;;;;;2610767;54;20972;-77
2023/12/04 13:24:23;;;;;;;9.13;7.40;;;;;;;;;;2612095;54;20379;-77
2023/12/04 13:26:49;;;;;;;11.63;7.60;;;;;;;;;;2611581;39;20827;-75
2023/12/04 13:29:18;;;;;;;10.30;7.50;;;;;;;;;;2612407;54;20390;-76
2023/12/04 13:31:46;;;;;;;12.00;6.80;;;;;;;;;;2611077;54;20985;-77
2023/12/04 13:34:12;;;;;;;10.70;7.23;;;;;;;;;;2612151;39;20574;-74
2023/12/04 13:36:38;;;;;;;5.93;5.33;;;;;;;;;;2611828;54;20429;-79
2023/12/04 13:39:04;;;;;;;9.80;7.80;;;;;;;;;;2612346;54;20403;-79
2023/12/04 13:44:16;;;;;;;8.87;6.43;;;;;;;;;;2611805;39;20792;-79
2023/12/04 13:46:42;;;;;;;8.57;6.53;;;;;;;;;;2610269;54;20415;-77
2023/12/04 13:49:08;;;;;;;10.60;7.17;;;;;;;;;;2611759;54;20450;-78
2023/12/04 13:51:40;;;;;;;7.00;5.27;;;;;;;;;;2611483;54;20404;-79
2023/12/04 13:54:41;;;;;;;8.77;7.07;;;;;;;;;;2612522;54;20520;-79
2023/12/04 13:56:56;;;;;;;9.43;7.50;;;;;;;;;;2611775;31;20813;-79
2023/12/04 13:59:22;;;;;;;11.57;7.17;;;;;;;;;;2612551;54;20422;-79
2023/12/04 14:01:49;;;;;;;11.70;6.90;;;;;;;;;;2612077;46;20424;-81
2023/12/04 14:04:16;;;;;;;5.00;4.50;;;;;;;;;;2611688;39;20820;-79
2023/12/04 14:06:42;;;;;;;11.00;6.43;;;;;;;;;;2613601;39;20764;-81
2023/12/04 14:09:13;;;;;;;9.40;6.50;;;;;;;;;;2613039;54;21052;-80
2023/12/04 14:11:40;;;;;;;12.70;8.00;;;;;;;;;;2611061;54;20452;-82
2023/12/04 14:14:06;;;;;;;9.93;6.60;;;;;;;;;;2611530;54;20937;-80
2023/12/04 14:16:32;;;;;;;10.30;7.37;;;;;;;;;;2611796;54;20455;-82
2023/12/04 14:18:58;;;;;;;10.40;7.10;;;;;;;;;;2611863;54;20412;-79
2023/12/04 14:21:24;;;;;;;7.20;6.43;;;;;;;;;;2610986;54;20424;-79
2023/12/04 14:23:51;;;;;;;9.27;6.33;;;;;;;;;;2611565;54;20527;-81
2023/12/04 14:26:17;;;;;;;7.30;6.50;;;;;;;;;;2610163;54;21015;-79
2023/12/04 14:28:43;;;;;;;9.30;6.67;;;;;;;;;;2611365;54;20452;-81
2023/12/04 14:31:11;;;;;;;8.10;7.30;;;;;;;;;;2611405;54;20412;-80
2023/12/04 14:33:37;;;;;;;12.00;7.90;;;;;;;;;;2611813;54;20419;-78
2023/12/04 14:36:03;;;;;;;10.70;8.03;;;;;;;;;;2612290;54;20439;-81